.
WxDataArchive / Data Records for 2007-10-26
2007-10-25 October 2007 2007-10-27

Data Records for Friday, 26 October 2007

Time	Temp	Chill	HIndex	Humid	Dewpt	 Wind 	HiWind	WindDir	Rain 	Barom 
-----	----	-----	------	-----	-----	------	------	-------	-----	----- 
00:00	55.4	55.4	55.4	67	44.6	3	7	90	0.00	30.081 
00:05	55.4	55.4	55.4	67	44.6	3	9	90	0.00	30.079 
00:10	55.4	55.4	55.4	67	44.6	3	7	90	0.00	30.080 
00:15	55.4	55.4	55.4	67	44.6	3	9	90	0.00	30.080 
00:20	55.4	55.4	55.4	67	44.6	3	10	90	0.00	30.080 
00:25	55.3	55.3	55.3	67	44.5	2	6	112	0.00	30.080 
00:30	55.3	55.3	55.3	68	44.9	3	6	112	0.00	30.080 
00:35	55.3	55.3	55.3	68	44.9	3	11	90	0.00	30.080 
00:40	55.3	55.3	55.3	68	44.9	2	6	90	0.00	30.080 
00:45	55.1	55.1	55.1	68	44.7	2	5	90	0.00	30.080 
00:50	55.1	55.1	55.1	69	45.1	2	5	90	0.00	30.080 
00:55	55.1	55.1	55.1	68	44.7	3	6	90	0.00	30.080 
01:00	55.1	55.1	55.1	68	44.7	3	6	90	0.00	30.080 
01:05	55.0	55.0	55.0	68	44.6	2	5	90	0.00	30.080 
01:10	55.0	55.0	55.0	68	44.6	2	5	90	0.00	30.080 
01:15	55.0	55.0	55.0	69	45.0	2	5	90	0.00	30.081 
01:20	54.8	54.8	54.8	69	44.8	2	5	90	0.00	30.080 
01:25	54.8	54.8	54.8	69	44.8	2	6	90	0.00	30.081 
01:30	54.7	54.7	54.7	69	44.7	1	4	112	0.00	30.080 
01:35	54.7	54.7	54.7	69	44.7	2	6	90	0.00	30.081 
01:40	54.7	54.7	54.7	69	44.7	2	5	90	0.00	30.081 
01:45	54.5	54.5	54.5	70	44.9	3	5	90	0.00	30.081 
01:50	54.5	54.5	54.5	70	44.9	2	5	90	0.00	30.081 
01:55	54.4	54.4	54.4	70	44.8	1	3	90	0.00	30.081 
02:00	54.4	54.4	54.4	71	45.2	1	4	90	0.00	30.082 
02:05	54.2	54.2	54.2	71	45.0	1	4	90	0.00	30.083 
02:10	54.1	54.1	54.1	72	45.3	2	5	90	0.00	30.085 
02:15	53.8	53.8	53.8	73	45.3	1	4	90	0.00	30.087 
02:20	53.5	53.5	53.5	73	45.1	2	5	90	0.00	30.086 
02:25	53.3	53.3	53.3	74	45.2	2	6	90	0.00	30.085 
02:30	53.1	53.1	53.1	75	45.4	1	4	90	0.00	30.088 
02:35	52.9	52.9	52.9	75	45.2	2	5	90	0.00	30.086 
02:40	52.8	52.8	52.8	76	45.4	1	4	90	0.00	30.084 
02:45	52.8	52.8	52.8	76	45.4	1	3	90	0.00	30.083 
02:50	52.8	52.8	52.8	76	45.4	1	3	90	0.00	30.083 
02:55	52.8	52.8	52.8	76	45.4	1	3	90	0.00	30.083 
03:00	52.9	52.9	52.9	76	45.5	1	3	90	0.00	30.082 
03:05	52.9	52.9	52.9	76	45.5	1	3	90	0.00	30.081 
03:10	52.9	52.9	52.9	76	45.5	1	3	90	0.00	30.081 
03:15	52.8	52.8	52.8	76	45.4	0	2	90	0.00	30.082 
03:20	52.9	52.9	52.9	75	45.2	1	2	90	0.00	30.081 
03:25	52.9	52.9	52.9	75	45.2	0	2	90	0.00	30.082 
03:30	52.9	52.9	52.9	75	45.2	0	1	90	0.00	30.082 
03:35	52.9	52.9	52.9	75	45.2	0	2	90	0.00	30.080 
03:40	53.1	53.1	53.1	76	45.7	0	1	90	0.00	30.080 
03:45	53.1	53.1	53.1	76	45.7	0	1	90	0.00	30.080 
03:50	53.1	53.1	53.1	76	45.7	0	1	90	0.00	30.080 
03:55	53.1	53.1	53.1	76	45.7	0	2	90	0.00	30.081 
04:00	53.1	53.1	53.1	76	45.7	0	1	90	0.00	30.082 
04:05	53.1	53.1	53.1	76	45.7	1	3	90	0.00	30.084 
04:10	53.1	53.1	53.1	76	45.7	1	3	90	0.00	30.081 
04:15	53.1	53.1	53.1	76	45.7	1	3	90	0.00	30.077 
04:20	52.9	52.9	52.9	77	45.9	1	5	112	0.00	30.078 
04:25	52.8	52.8	52.8	77	45.8	1	3	112	0.00	30.079 
04:30	52.8	52.8	52.8	77	45.8	1	4	90	0.00	30.082 
04:35	52.8	52.8	52.8	76	45.4	0	2	90	0.00	30.083 
04:40	52.8	52.8	52.8	76	45.4	1	3	90	0.00	30.082 
04:45	52.9	52.9	52.9	76	45.5	1	3	90	0.00	30.083 
04:50	52.9	52.9	52.9	76	45.5	1	2	112	0.00	30.084 
04:55	52.9	52.9	52.9	76	45.5	1	2	112	0.00	30.084 
05:00	52.9	52.9	52.9	76	45.5	0	2	112	0.00	30.085 
05:05	52.9	52.9	52.9	76	45.5	1	2	112	0.00	30.086 
05:10	52.9	52.9	52.9	76	45.5	1	2	112	0.00	30.088 
05:15	52.9	52.9	52.9	76	45.5	0	3	112	0.00	30.091 
05:20	52.9	52.9	52.9	77	45.9	0	1	112	0.00	30.094 
05:25	52.9	52.9	52.9	77	45.9	1	3	112	0.00	30.096 
05:30	52.9	52.9	52.9	77	45.9	0	2	112	0.00	30.097 
05:35	52.8	52.8	52.8	77	45.8	0	2	112	0.00	30.098 
05:40	52.8	52.8	52.8	77	45.8	0	1	112	0.00	30.099 
05:45	52.8	52.8	52.8	78	46.1	0	1	112	0.00	30.099 
05:50	52.8	52.8	52.8	77	45.8	0	2	112	0.00	30.099 
05:55	52.8	52.8	52.8	77	45.8	0	1	112	0.00	30.099 
06:00	52.8	52.8	52.8	77	45.8	0	1	112	0.00	30.100 
06:05	52.8	52.8	52.8	78	46.1	0	1	112	0.00	30.100 
06:10	52.8	52.8	52.8	78	46.1	0	1	112	0.00	30.102 
06:15	52.8	52.8	52.8	78	46.1	0	1	112	0.00	30.104 
06:20	52.8	52.8	52.8	78	46.1	0	1	112	0.00	30.104 
06:25	52.8	52.8	52.8	78	46.1	0	1	112	0.00	30.102 
06:30	52.6	52.6	52.6	78	45.9	1	2	112	0.00	30.103 
06:35	52.6	52.6	52.6	78	45.9	1	2	112	0.00	30.103 
06:40	52.6	52.6	52.6	79	46.3	1	4	112	0.00	30.101 
06:45	52.6	52.6	52.6	79	46.3	1	3	90	0.00	30.102 
06:50	52.5	52.5	52.5	79	46.2	1	3	90	0.00	30.101 
06:55	52.3	52.3	52.3	80	46.3	1	2	90	0.00	30.101 
07:00	52.2	52.2	52.2	80	46.2	1	2	90	0.00	30.104 
07:05	51.9	51.9	51.9	81	46.3	1	3	90	0.00	30.104 
07:10	51.7	51.7	51.7	81	46.1	1	2	90	0.00	30.104 
07:15	51.6	51.6	51.6	82	46.3	0	2	90	0.00	30.103 
07:20	51.4	51.4	51.4	82	46.1	1	2	90	0.00	30.105 
07:25	51.4	51.4	51.4	82	46.1	0	3	90	0.00	30.106 
07:30	51.3	51.3	51.3	83	46.3	0	3	90	0.00	30.105 
07:35	51.3	51.3	51.3	83	46.3	0	2	90	0.00	30.105 
07:40	51.3	51.3	51.3	83	46.3	0	1	112	0.00	30.106 
07:45	51.3	51.3	51.3	84	46.6	0	2	112	0.00	30.105 
07:50	51.4	51.4	51.4	84	46.7	0	1	112	0.00	30.104 
07:55	51.7	51.7	51.7	83	46.7	0	1	112	0.00	30.101 
08:00	51.9	51.9	51.9	83	46.9	0	1	112	0.00	30.101 
08:05	52.2	52.2	52.2	82	46.9	0	1	112	0.00	30.101 
08:10	52.3	52.3	52.3	82	47.0	0	1	112	0.00	30.100 
08:15	52.6	52.6	52.6	82	47.3	0	1	112	0.00	30.100 
08:20	52.9	52.9	52.9	81	47.2	0	2	112	0.00	30.099 
08:25	53.3	53.3	53.3	80	47.3	1	4	112	0.00	30.100 
08:30	53.8	53.8	53.8	80	47.8	2	3	112	0.00	30.097 
08:35	54.5	54.5	54.5	79	48.1	1	3	112	0.00	30.096 
08:40	55.3	55.3	55.3	77	48.2	1	3	112	0.00	30.096 
08:45	56.2	56.2	56.2	75	48.4	1	4	112	0.00	30.094 
08:50	56.5	56.5	56.5	75	48.7	2	4	112	0.00	30.095 
08:55	56.9	56.9	56.9	75	49.1	0	2	112	0.00	30.094 
09:00	57.3	57.3	57.3	73	48.7	1	2	112	0.00	30.093 
09:05	57.6	57.6	57.6	73	49.0	1	3	112	0.00	30.088 
09:10	57.8	57.8	57.8	74	49.6	2	4	112	0.00	30.084 
09:15	57.8	57.8	57.8	73	49.2	2	5	90	0.00	30.083 
09:20	58.1	58.1	58.1	74	49.9	2	7	90	0.00	30.081 
09:25	58.3	58.3	58.3	74	50.0	3	9	90	0.00	30.080 
09:30	58.7	58.7	58.7	73	50.1	1	3	68	0.00	30.080 
09:35	59.2	59.2	59.2	73	50.5	2	4	90	0.00	30.079 
09:40	59.6	59.6	59.6	72	50.6	1	4	90	0.00	30.079 
09:45	59.8	59.8	59.8	72	50.8	3	5	90	0.00	30.074 
09:50	60.1	60.1	60.1	72	51.0	1	3	112	0.00	30.073 
09:55	60.5	60.5	60.5	72	51.4	1	4	90	0.00	30.074 
10:00	60.9	60.9	60.9	71	51.4	2	5	90	0.00	30.072 
10:05	61.2	61.2	61.2	73	52.5	1	4	90	0.00	30.071 
10:10	61.5	61.5	61.5	70	51.6	2	6	90	0.00	30.066 
10:15	61.8	61.8	61.8	70	51.9	2	5	68	0.00	30.066 
10:20	61.8	61.8	61.8	70	51.9	2	5	90	0.00	30.068 
10:25	62.0	62.0	62.0	70	52.1	2	5	90	0.00	30.067 
10:30	62.3	62.3	62.3	70	52.4	2	6	90	0.00	30.064 
10:35	62.6	62.6	62.6	69	52.3	2	5	90	0.00	30.060 
10:40	62.9	62.9	62.9	69	52.6	3	6	90	0.00	30.060 
10:45	62.9	62.9	62.9	69	52.6	3	5	90	0.00	30.059 
10:50	62.9	62.9	62.9	69	52.6	3	6	90	0.00	30.059 
10:55	63.2	63.2	63.2	69	52.9	3	5	90	0.00	30.059 
11:00	63.4	63.4	63.4	68	52.6	3	6	90	0.00	30.058 
11:05	63.7	63.7	63.7	68	52.9	2	7	90	0.00	30.056 
11:10	64.2	64.2	64.2	69	53.8	3	9	112	0.00	30.054 
11:15	64.5	64.5	64.5	67	53.3	3	6	90	0.00	30.049 
11:20	64.5	64.5	64.5	68	53.7	3	6	90	0.00	30.048 
11:25	64.8	64.8	64.8	67	53.6	2	7	90	0.00	30.046 
11:30	65.2	65.2	65.2	67	54.0	3	8	90	0.00	30.043 
11:35	65.5	65.5	65.5	67	54.2	3	7	90	0.00	30.042 
11:40	65.5	65.5	65.5	66	53.8	3	7	112	0.00	30.040 
11:45	65.5	65.5	65.5	66	53.8	4	8	90	0.00	30.037 
11:50	65.6	65.6	65.6	65	53.5	3	7	90	0.00	30.030 
11:55	66.0	66.0	66.0	63	53.0	2	5	112	0.00	30.030 
12:00	66.3	66.3	66.3	63	53.3	3	9	90	0.00	30.027 
12:05	66.3	66.3	66.3	65	54.2	2	6	68	0.00	30.025 
12:10	66.4	66.4	66.4	63	53.4	3	6	90	0.00	30.022 
12:15	66.4	66.4	66.4	64	53.8	2	5	90	0.00	30.016 
12:20	66.6	66.6	66.6	61	52.7	3	9	90	0.00	30.011 
12:25	66.8	66.8	66.8	61	52.9	3	9	90	0.00	30.010 
12:30	66.9	66.9	66.9	61	53.0	2	7	90	0.00	30.008 
12:35	67.3	67.3	67.3	60	52.9	1	3	112	0.00	30.005 
12:40	67.8	67.8	67.8	58	52.5	2	9	112	0.00	30.002 
12:45	67.9	67.9	67.9	57	52.1	1	3	158	0.00	29.996 
12:50	68.1	68.1	68.1	57	52.3	3	9	90	0.00	29.993 
12:55	68.3	68.3	68.3	58	52.9	2	6	112	0.00	29.992 
13:00	68.3	68.3	68.3	57	52.5	3	7	90	0.00	29.991 
13:05	68.4	68.4	68.4	58	53.0	2	5	90	0.00	29.992 
13:10	68.4	68.4	68.4	59	53.5	2	5	90	0.00	29.985 
13:15	68.6	68.6	68.6	58	53.2	2	6	112	0.00	29.981 
13:20	68.6	68.6	68.6	56	52.3	3	7	90	0.00	29.979 
13:25	68.6	68.6	68.6	56	52.3	2	7	90	0.00	29.977 
13:30	68.8	68.8	68.8	57	52.9	2	7	90	0.00	29.976 
13:35	69.1	69.1	69.1	57	53.2	2	5	112	0.00	29.973 
13:40	69.3	69.3	69.3	56	52.9	3	6	90	0.00	29.968 
13:45	69.3	69.3	69.3	55	52.4	3	9	112	0.00	29.965 
13:50	69.3	69.3	69.3	55	52.4	2	5	112	0.00	29.963 
13:55	68.9	68.9	68.9	57	53.0	2	5	112	0.00	29.962 
14:00	69.1	69.1	69.1	56	52.7	3	9	90	0.00	29.961 
14:05	69.3	69.3	69.3	56	52.9	2	5	90	0.00	29.960 
14:10	69.4	69.4	69.4	55	52.5	3	9	90	0.00	29.959 
14:15	69.4	69.4	69.4	55	52.5	2	4	112	0.00	29.960 
14:20	69.6	69.6	69.6	55	52.7	2	6	112	0.00	29.958 
14:25	69.3	69.3	69.3	54	51.9	3	5	112	0.00	29.956 
14:30	69.1	69.1	69.1	54	51.7	2	5	112	0.00	29.955 
14:35	68.9	68.9	68.9	56	52.5	2	5	112	0.00	29.953 
14:40	68.8	68.8	68.8	57	52.9	3	6	112	0.00	29.947 
14:45	68.8	68.8	68.8	58	53.4	3	5	90	0.00	29.945 
14:50	68.8	68.8	68.8	57	52.9	3	6	90	0.00	29.947 
14:55	68.8	68.8	68.8	57	52.9	2	9	68	0.00	29.947 
15:00	68.6	68.6	68.6	57	52.7	3	6	90	0.00	29.946 
15:05	68.8	68.8	68.8	59	53.9	2	4	68	0.00	29.947 
15:10	68.6	68.6	68.6	60	54.1	2	5	90	0.00	29.949 
15:15	68.3	68.3	68.3	65	56.1	2	6	90	0.00	29.948 
15:20	67.6	67.6	67.6	67	56.2	3	6	90	0.00	29.953 
15:25	66.9	66.9	66.9	68	56.0	4	7	90	0.00	29.957 
15:30	66.8	66.8	66.8	69	56.3	3	6	90	0.00	29.955 
15:35	66.8	66.8	66.8	69	56.3	3	9	90	0.00	29.950 
15:40	66.8	66.8	66.8	69	56.3	3	7	112	0.00	29.950 
15:45	66.6	66.6	66.6	69	56.1	2	6	90	0.00	29.948 
15:50	66.8	66.8	66.8	69	56.3	3	6	90	0.00	29.946 
15:55	66.9	66.9	66.9	69	56.4	3	9	90	0.00	29.945 
16:00	67.1	67.1	67.1	68	56.2	4	7	90	0.00	29.944 
16:05	66.9	66.9	66.9	69	56.4	3	7	90	0.00	29.944 
16:10	66.6	66.6	66.6	70	56.5	4	9	90	0.00	29.944 
16:15	66.1	66.1	66.1	72	56.8	2	4	90	0.00	29.946 
16:20	65.8	65.8	65.8	73	56.9	2	4	90	0.00	29.946 
16:25	65.6	65.6	65.6	73	56.7	3	5	90	0.00	29.946 
16:30	65.3	65.3	65.3	73	56.4	2	5	90	0.00	29.947 
16:35	65.2	65.2	65.2	74	56.7	2	5	90	0.00	29.947 
16:40	65.2	65.2	65.2	74	56.7	1	3	90	0.00	29.945 
16:45	65.3	65.3	65.3	74	56.8	1	4	112	0.00	29.945 
16:50	65.5	65.5	65.5	74	57.0	1	5	112	0.00	29.945 
16:55	65.5	65.5	65.5	74	57.0	2	6	112	0.00	29.942 
17:00	65.8	65.8	65.8	73	56.9	3	6	90	0.00	29.941 
17:05	65.8	65.8	65.8	74	57.3	3	7	112	0.00	29.934 
17:10	65.8	65.8	65.8	74	57.3	3	10	90	0.00	29.933 
17:15	65.5	65.5	65.5	74	57.0	2	5	90	0.00	29.937 
17:20	65.2	65.2	65.2	75	57.1	2	5	90	0.00	29.937 
17:25	64.8	64.8	64.8	75	56.7	3	6	90	0.00	29.935 
17:30	64.7	64.7	64.7	76	57.0	3	7	90	0.00	29.934 
17:35	64.5	64.5	64.5	76	56.8	1	3	90	0.00	29.934 
17:45	64.3	64.3	64.3	76	56.6	1	2	90	0.00	29.935 
17:50	64.3	64.3	64.3	76	56.6	1	3	90	0.00	29.935 
17:55	64.0	64.0	64.0	77	56.6	1	2	90	0.00	29.935 
18:00	63.9	63.9	63.9	77	56.5	1	4	90	0.00	29.935 
18:05	63.5	63.5	63.5	78	56.5	2	7	112	0.00	29.935 
18:10	63.1	63.1	63.1	79	56.5	2	4	112	0.00	29.937 
18:15	62.7	62.7	62.7	80	56.4	1	5	90	0.00	29.937 
18:20	62.4	62.4	62.4	81	56.5	2	5	112	0.00	29.938 
18:25	62.1	62.1	62.1	81	56.2	2	4	90	0.00	29.939 
18:30	62.0	62.0	62.0	81	56.1	1	4	112	0.00	29.940 
18:35	61.8	61.8	61.8	81	55.9	1	4	90	0.00	29.939 
18:40	61.6	61.6	61.6	81	55.7	2	6	112	0.00	29.937 
18:45	61.6	61.6	61.6	82	56.0	2	5	90	0.00	29.936 
18:50	61.3	61.3	61.3	82	55.8	3	6	112	0.00	29.936 
18:55	61.2	61.2	61.2	82	55.7	2	7	112	0.00	29.938 
19:00	61.0	61.0	61.0	82	55.5	3	6	112	0.00	29.937 
19:05	60.9	60.9	60.9	82	55.4	1	5	112	0.00	29.937 
19:10	60.7	60.7	60.7	82	55.2	2	5	112	0.00	29.934 
19:15	60.5	60.5	60.5	83	55.3	2	7	90	0.00	29.933 
19:20	60.4	60.4	60.4	83	55.2	3	7	90	0.00	29.928 
19:25	60.2	60.2	60.2	84	55.3	2	7	112	0.00	29.924 
19:30	60.2	60.2	60.2	84	55.3	2	10	90	0.00	29.922 
19:35	60.1	60.1	60.1	84	55.2	2	5	90	0.00	29.922 
19:40	59.9	59.9	59.9	85	55.4	1	3	135	0.00	29.927 
19:45	59.9	59.9	59.9	85	55.4	0	3	135	0.00	29.935 
19:50	59.5	59.5	59.5	84	54.7	4	17	248	0.03	29.954 
19:55	57.3	57.3	57.3	87	53.5	5	17	270	0.14	29.971 
20:00	56.3	56.3	56.3	90	53.4	3	6	270	0.04	29.971 
20:05	55.9	55.9	55.9	92	53.6	2	7	270	0.02	29.964 
20:10	55.6	55.6	55.6	92	53.3	2	3	270	0.00	29.955 
20:15	55.4	55.4	55.4	93	53.4	2	4	270	0.01	29.963 
20:20	55.3	55.3	55.3	94	53.6	1	4	270	0.01	29.966 
20:25	55.3	55.3	55.3	94	53.6	2	5	248	0.00	29.969 
20:30	55.1	55.1	55.1	94	53.4	1	5	248	0.00	29.963 
20:35	55.1	55.1	55.1	94	53.4	1	3	270	0.00	29.965 
20:40	55.0	55.0	55.0	95	53.6	2	3	270	0.00	29.967 
20:45	55.0	55.0	55.0	95	53.6	1	3	270	0.00	29.968 
20:50	55.0	55.0	55.0	95	53.6	0	2	270	0.00	29.970 
20:55	54.8	54.8	54.8	95	53.4	0	3	270	0.00	29.969 
21:00	54.8	54.8	54.8	95	53.4	0	2	270	0.00	29.969 
21:05	54.8	54.8	54.8	95	53.4	0	1	270	0.00	29.969 
21:10	54.8	54.8	54.8	95	53.4	0	1	270	0.00	29.969 
21:15	54.8	54.8	54.8	95	53.4	0	2	270	0.00	29.974 
21:20	54.8	54.8	54.8	95	53.4	0	1	270	0.00	29.973 
21:25	54.8	54.8	54.8	95	53.4	0	2	270	0.00	29.968 
21:30	54.7	54.7	54.7	95	53.3	0	1	270	0.00	29.971 
21:35	54.7	54.7	54.7	95	53.3	0	2	270	0.00	29.972 
21:40	54.7	54.7	54.7	95	53.3	0	2	270	0.00	29.973 
21:45	54.5	54.5	54.5	95	53.1	0	1	270	0.00	29.974 
21:50	54.5	54.5	54.5	95	53.1	0	1	270	0.00	29.976 
21:55	54.5	54.5	54.5	95	53.1	0	0	---	0.00	29.974 
22:00	54.5	54.5	54.5	95	53.1	0	0	---	0.00	29.974 
22:05	54.5	54.5	54.5	95	53.1	0	0	---	0.00	29.967 
22:10	54.5	54.5	54.5	95	53.1	0	1	270	0.00	29.967 
22:15	54.4	54.4	54.4	95	53.0	0	1	270	0.00	29.975 
22:20	54.4	54.4	54.4	95	53.0	0	1	270	0.00	29.971 
22:25	54.2	54.2	54.2	95	52.8	0	2	270	0.00	29.977 
22:30	54.2	54.2	54.2	95	52.8	0	1	270	0.00	29.972 
22:35	54.1	54.1	54.1	96	53.0	0	1	270	0.00	29.966 
22:40	54.1	54.1	54.1	96	53.0	0	1	270	0.00	29.965 
22:45	54.1	54.1	54.1	95	52.7	0	0	---	0.00	29.966 
22:50	53.9	53.9	53.9	96	52.8	0	0	---	0.00	29.967 
22:55	53.9	53.9	53.9	96	52.8	0	1	270	0.00	29.969 
23:00	54.1	54.1	54.1	96	53.0	0	1	270	0.00	29.975 
23:05	54.2	54.2	54.2	96	53.1	0	0	---	0.00	29.972 
23:10	54.2	54.2	54.2	96	53.1	0	0	---	0.00	29.970 
23:15	54.2	54.2	54.2	96	53.1	0	1	270	0.00	29.973 
23:20	54.1	54.1	54.1	96	53.0	0	2	270	0.00	29.972 
23:25	54.1	54.1	54.1	96	53.0	0	1	270	0.00	29.975 
23:30	53.9	53.9	53.9	96	52.8	0	1	270	0.00	29.976 
23:35	53.9	53.9	53.9	96	52.8	0	1	270	0.00	29.977 
23:40	53.9	53.9	53.9	96	52.8	0	1	270	0.00	29.978 
23:45	53.9	53.9	53.9	96	52.8	0	1	270	0.00	29.978 
23:50	53.8	53.8	53.8	96	52.7	0	2	270	0.00	29.979 
23:55	53.8	53.8	53.8	96	52.7	0	1	270	0.00	29.977 

CoCoRaHS
IN-AL-39
A2 Web Hosting
Creative Commons License
GoDaddy
Look for:

loaded 2017-10-17 22:09:39 • last modified 2010-11-18 10:43:29
Privacy PolicyDisclaimer
• wx.awcolley.com is powered by PmWiki v.2002016 •
• all content (unless otherwise noted) © 2017 A W Colley